Time;durP1;ratioP1;P1;durP2;ratioP2;P2;SDS_P1;SDS_P2;PMS_P1;PMS_P2;Temp;Humidity;BMP_temperature;BMP_pressure;BME280_temperature;BME280_humidity;BME280_pressure;Samples;Min_cycle;Max_cycle;Signal;HPM_P1;HPM_P2
2021/12/28 00:01:15;;;;;;;10.43;4.93;;;;;;;6.37;100.00;98758.38;5013274;28;20204;-50
2021/12/28 00:03:43;;;;;;;12.47;6.00;;;;;;;6.40;100.00;98759.19;5019203;28;20228;-50
2021/12/28 00:06:09;;;;;;;14.93;7.27;;;;;;;6.46;100.00;98754.81;5015274;28;20220;-50
2021/12/28 00:08:36;;;;;;;14.23;8.63;;;;;;;6.52;100.00;98755.53;5023509;28;20331;-50
2021/12/28 00:11:03;;;;;;;23.37;12.10;;;;;;;6.55;100.00;98747.78;5024315;28;20222;-50
2021/12/28 00:13:30;;;;;;;24.77;14.77;;;;;;;6.58;100.00;98749.44;5024634;28;20188;-49
2021/12/28 00:18:24;;;;;;;25.53;12.77;;;;;;;6.71;100.00;98742.38;5021618;28;20220;-50
2021/12/28 00:20:52;;;;;;;21.93;13.57;;;;;;;6.79;100.00;98735.38;5009605;28;20279;-50
2021/12/28 00:23:25;;;;;;;21.97;14.10;;;;;;;6.85;100.00;98727.53;5019788;28;20184;-50
2021/12/28 00:25:52;;;;;;;20.10;10.83;;;;;;;6.85;100.00;98730.13;5022996;28;20194;-50
2021/12/28 00:28:18;;;;;;;16.63;10.70;;;;;;;6.81;100.00;98720.75;5019240;28;20255;-50
2021/12/28 00:30:45;;;;;;;22.57;13.00;;;;;;;6.77;100.00;98728.56;5020846;28;20223;-50
2021/12/28 00:33:10;;;;;;;16.57;9.87;;;;;;;6.72;100.00;98718.38;5022465;28;20293;-50
2021/12/28 00:35:39;;;;;;;16.13;9.27;;;;;;;6.66;100.00;98714.19;5023356;28;20612;-50
2021/12/28 00:38:06;;;;;;;13.10;6.80;;;;;;;6.66;100.00;98716.75;5022094;28;20564;-50
2021/12/28 00:40:33;;;;;;;13.40;5.97;;;;;;;6.68;100.00;98714.16;5027915;28;20642;-50
2021/12/28 00:42:59;;;;;;;10.40;5.03;;;;;;;6.67;100.00;98705.59;5019210;28;20189;-50
2021/12/28 00:45:24;;;;;;;11.27;4.43;;;;;;;6.66;100.00;98703.03;5025662;28;20197;-50
2021/12/28 00:47:50;;;;;;;9.83;4.57;;;;;;;6.63;100.00;98710.84;5018331;28;20241;-50
2021/12/28 00:50:17;;;;;;;13.67;5.83;;;;;;;6.60;100.00;98709.16;5020728;28;20652;-50
2021/12/28 00:52:43;;;;;;;11.37;5.90;;;;;;;6.54;100.00;98704.13;5029323;28;20378;-51
2021/12/28 00:55:10;;;;;;;8.17;4.83;;;;;;;6.50;100.00;98702.47;5025199;28;20649;-52
2021/12/28 00:57:35;;;;;;;9.83;4.40;;;;;;;6.44;100.00;98695.75;5018760;28;20235;-50
2021/12/28 01:00:06;;;;;;;8.97;3.50;;;;;;;6.41;100.00;98685.50;5041085;28;20194;-53
2021/12/28 01:02:32;;;;;;;8.13;3.10;;;;;;;6.39;100.00;98682.13;5022710;28;20583;-50
2021/12/28 01:04:57;;;;;;;7.30;2.83;;;;;;;6.36;100.00;98677.03;5029754;28;20576;-50
2021/12/28 01:07:23;;;;;;;6.47;2.73;;;;;;;6.32;100.00;98673.66;5030255;28;20735;-50
2021/12/28 01:09:48;;;;;;;5.87;2.33;;;;;;;6.29;100.00;98684.00;5026370;28;20303;-51
2021/12/28 01:12:14;;;;;;;6.73;2.60;;;;;;;6.27;100.00;98675.50;5023514;28;20656;-50
2021/12/28 01:14:39;;;;;;;6.87;2.70;;;;;;;6.27;100.00;98672.91;5022709;28;20243;-50
2021/12/28 01:17:05;;;;;;;7.10;2.83;;;;;;;6.27;100.00;98678.06;5025973;28;20641;-50
2021/12/28 01:19:32;;;;;;;9.50;2.90;;;;;;;6.25;100.00;98666.97;5028788;28;20723;-50
2021/12/28 01:21:57;;;;;;;9.90;2.60;;;;;;;6.25;100.00;98664.38;5030079;28;20192;-50
2021/12/28 01:24:24;;;;;;;6.57;2.27;;;;;;;6.26;100.00;98658.38;5026272;28;20543;-50
2021/12/28 01:26:49;;;;;;;6.67;2.63;;;;;;;6.27;100.00;98651.50;5022218;28;20220;-49
2021/12/28 01:29:14;;;;;;;7.57;2.87;;;;;;;6.32;100.00;98644.56;5024812;28;20203;-50
2021/12/28 01:31:40;;;;;;;7.07;2.20;;;;;;;6.33;100.00;98644.53;5017954;28;20214;-50
2021/12/28 01:34:07;;;;;;;6.60;2.80;;;;;;;6.36;100.00;98651.31;5025456;28;20220;-50
2021/12/28 01:36:33;;;;;;;8.17;2.53;;;;;;;6.38;100.00;98652.16;5036678;28;20606;-50
2021/12/28 01:38:59;;;;;;;7.10;2.47;;;;;;;6.40;100.00;98653.84;5017193;28;20290;-51
2021/12/28 01:41:24;;;;;;;5.60;2.23;;;;;;;6.44;100.00;98649.47;5025560;28;20623;-50
2021/12/28 01:43:57;;;;;;;5.97;2.27;;;;;;;6.48;100.00;98646.00;5025609;28;20677;-50
2021/12/28 01:46:23;;;;;;;5.13;2.00;;;;;;;6.50;100.00;98651.09;5027854;28;20274;-50
2021/12/28 01:48:48;;;;;;;7.03;2.30;;;;;;;6.51;100.00;98645.91;5029354;28;20211;-50
2021/12/28 01:51:20;;;;;;;5.47;2.13;;;;;;;6.54;100.00;98645.84;5017436;28;20623;-50
2021/12/28 01:53:47;;;;;;;5.43;1.93;;;;;;;6.59;100.00;98630.34;5023305;28;20226;-51
2021/12/28 01:56:19;;;;;;;7.77;2.30;;;;;;;6.66;100.00;98642.22;5035571;28;20178;-51
2021/12/28 01:58:45;;;;;;;5.53;2.07;;;;;;;6.70;100.00;98637.84;5032353;28;20217;-51
2021/12/28 02:01:10;;;;;;;5.67;2.20;;;;;;;6.75;100.00;98632.59;5022628;28;20194;-50
2021/12/28 02:03:39;;;;;;;6.63;2.00;;;;;;;6.80;100.00;98631.66;5022791;28;20190;-52
2021/12/28 02:06:06;;;;;;;4.77;1.63;;;;;;;6.85;100.00;98629.81;5022080;28;20284;-50
2021/12/28 02:08:32;;;;;;;7.37;1.67;;;;;;;6.91;100.00;98626.28;5027552;28;20218;-50
2021/12/28 02:10:57;;;;;;;5.07;1.83;;;;;;;6.97;100.00;98626.16;5025733;28;20200;-50
2021/12/28 02:13:24;;;;;;;8.57;2.27;;;;;;;7.04;100.00;98626.00;5026118;28;20252;-50
2021/12/28 02:15:50;;;;;;;5.83;1.83;;;;;;;7.08;100.00;98617.34;5018729;28;20182;-50
2021/12/28 02:18:19;;;;;;;4.97;1.80;;;;;;;7.12;100.00;98609.53;5020498;28;20709;-50
2021/12/28 02:20:45;;;;;;;4.50;2.03;;;;;;;7.17;100.00;98594.03;5025534;28;20209;-49
2021/12/28 02:23:11;;;;;;;5.47;1.80;;;;;;;7.20;100.00;98596.50;5018001;28;20268;-50
2021/12/28 02:25:37;;;;;;;4.27;1.93;;;;;;;7.22;100.00;98594.75;5020379;28;20204;-49
2021/12/28 02:28:05;;;;;;;4.60;1.63;;;;;;;7.21;100.00;98580.19;5016800;28;20216;-52
2021/12/28 02:30:31;;;;;;;3.50;1.13;;;;;;;7.19;100.00;98581.94;5009872;28;20842;-50
2021/12/28 02:32:56;;;;;;;3.37;1.50;;;;;;;7.17;100.00;98587.13;5015789;28;20192;-50
2021/12/28 02:35:25;;;;;;;4.37;1.60;;;;;;;7.14;100.00;98581.22;5022975;28;20204;-50
2021/12/28 02:37:51;;;;;;;5.87;1.47;;;;;;;7.11;100.00;98586.44;5020600;28;20209;-50
2021/12/28 02:40:20;;;;;;;4.00;1.60;;;;;;;7.10;100.00;98577.03;5022505;28;20478;-50
2021/12/28 02:42:46;;;;;;;2.90;1.23;;;;;;;7.12;100.00;98590.69;5021430;28;20186;-50
2021/12/28 02:45:22;;;;;;;3.27;1.27;;;;;;;7.15;100.00;98572.63;5017167;28;20646;-50
2021/12/28 02:47:48;;;;;;;3.50;1.40;;;;;;;7.21;100.00;98574.22;5015468;28;20715;-50
2021/12/28 02:50:21;;;;;;;4.43;1.50;;;;;;;7.27;100.00;98577.50;5013502;28;20183;-50
2021/12/28 02:52:46;;;;;;;4.67;1.40;;;;;;;7.35;100.00;98568.72;5025169;28;20197;-49
2021/12/28 02:55:14;;;;;;;5.47;1.70;;;;;;;7.42;100.00;98565.13;5025531;28;20560;-50
2021/12/28 02:58:02;;;;;;;6.80;1.70;;;;;;;7.47;100.00;98561.56;5022091;28;20341;-50
2021/12/28 03:00:41;;;;;;;5.73;2.23;;;;;;;7.53;100.00;98554.59;5014119;28;20803;-50
2021/12/28 03:03:10;;;;;;;4.53;1.90;;;;;;;7.60;100.00;98545.81;5009571;28;20629;-50
2021/12/28 03:05:38;;;;;;;5.33;2.70;;;;;;;7.68;100.00;98548.19;5016638;28;20256;-50
2021/12/28 03:08:05;;;;;;;5.93;2.50;;;;;;;7.73;100.00;98554.09;5025436;28;20297;-50
2021/12/28 03:10:30;;;;;;;6.63;2.57;;;;;;;7.78;100.00;98547.09;5017988;28;20190;-50
2021/12/28 03:12:56;;;;;;;5.27;2.40;;;;;;;7.83;100.00;98540.09;5025524;28;20190;-50
2021/12/28 03:15:22;;;;;;;5.47;2.20;;;;;;;7.87;100.00;98536.56;5014616;28;20199;-50
2021/12/28 03:17:47;;;;;;;4.67;2.03;;;;;;;7.92;100.00;98541.59;5017176;28;20214;-50
2021/12/28 03:20:14;;;;;;;5.00;2.10;;;;;;;7.97;100.00;98541.44;5020164;28;20189;-50
2021/12/28 03:22:40;;;;;;;4.00;1.80;;;;;;;8.00;100.00;98538.81;5019748;28;20663;-50
2021/12/28 03:25:07;;;;;;;5.43;1.90;;;;;;;8.03;100.00;98536.97;5020083;28;20231;-50
2021/12/28 03:27:32;;;;;;;4.47;2.00;;;;;;;8.06;100.00;98525.78;5018070;28;20266;-52
2021/12/28 03:29:57;;;;;;;4.07;1.60;;;;;;;8.09;100.00;98528.28;5016914;28;20190;-51
2021/12/28 03:32:23;;;;;;;2.97;1.40;;;;;;;8.11;100.00;98528.22;5018562;28;20667;-50
2021/12/28 03:34:48;;;;;;;2.23;1.20;;;;;;;8.14;100.00;98520.41;5016888;28;20275;-50
2021/12/28 03:37:14;;;;;;;2.77;1.70;;;;;;;8.15;100.00;98520.34;5025695;28;20617;-50
2021/12/28 03:39:39;;;;;;;5.50;1.90;;;;;;;8.15;100.00;98517.78;5020923;28;20191;-50
2021/12/28 03:42:05;;;;;;;3.17;1.53;;;;;;;8.17;100.00;98513.44;5021226;28;20558;-50
2021/12/28 03:44:31;;;;;;;4.97;2.00;;;;;;;8.18;100.00;98507.41;5016682;28;20188;-51
2021/12/28 03:46:56;;;;;;;2.80;1.70;;;;;;;8.22;100.00;98510.72;5024098;28;20289;-50
2021/12/28 03:49:22;;;;;;;4.30;2.00;;;;;;;8.21;100.00;98501.28;5023557;28;20183;-50
2021/12/28 03:51:47;;;;;;;4.47;2.20;;;;;;;8.24;100.00;98499.47;5021669;28;20191;-50
2021/12/28 03:54:13;;;;;;;4.67;1.83;;;;;;;8.26;100.00;98498.59;5019205;28;20202;-50
2021/12/28 03:56:38;;;;;;;4.00;1.87;;;;;;;8.28;100.00;98489.09;5019908;28;20260;-50
2021/12/28 03:59:04;;;;;;;5.53;1.73;;;;;;;8.27;100.00;98480.53;5016154;28;20191;-51
2021/12/28 04:01:29;;;;;;;5.20;1.70;;;;;;;8.29;100.00;98477.88;5018084;28;20212;-50
2021/12/28 04:03:55;;;;;;;4.97;1.50;;;;;;;8.30;100.00;98464.13;5020305;28;20222;-50
2021/12/28 04:06:21;;;;;;;3.77;1.77;;;;;;;8.29;100.00;98457.28;5025407;28;20302;-50
2021/12/28 04:08:47;;;;;;;4.57;1.50;;;;;;;8.30;100.00;98458.97;5015410;28;20212;-50
2021/12/28 04:11:25;;;;;;;;;;;;;;;;;;;;;
2021/12/28 04:13:44;;;;;;;2.87;1.20;;;;;;;8.31;100.00;98456.34;5024811;28;20286;-50
2021/12/28 04:16:10;;;;;;;3.80;1.07;;;;;;;8.31;100.00;98458.94;5020214;28;20730;-51
2021/12/28 04:18:35;;;;;;;2.50;1.00;;;;;;;8.31;100.00;98458.94;5014463;28;20218;-50
2021/12/28 04:21:01;;;;;;;3.53;1.00;;;;;;;8.31;100.00;98452.91;5018173;28;20187;-50
2021/12/28 04:23:26;;;;;;;2.17;0.90;;;;;;;8.31;100.00;98458.94;5025243;28;20311;-50
2021/12/28 04:25:52;;;;;;;3.47;1.17;;;;;;;8.32;100.00;98452.03;5017041;28;20199;-50
2021/12/28 04:28:17;;;;;;;3.30;1.13;;;;;;;8.31;100.00;98447.75;5024440;28;20225;-50
2021/12/28 04:30:43;;;;;;;3.87;1.00;;;;;;;8.34;100.00;98438.19;5014481;28;20239;-50
2021/12/28 04:33:08;;;;;;;2.07;1.00;;;;;;;8.34;100.00;98445.09;5018325;28;20187;-51
2021/12/28 04:35:34;;;;;;;2.17;1.00;;;;;;;8.38;100.00;98442.38;5018530;28;20188;-50
2021/12/28 04:37:59;;;;;;;4.53;1.10;;;;;;;8.38;100.00;98446.72;5017076;28;20583;-50
2021/12/28 04:40:25;;;;;;;3.60;1.10;;;;;;;8.40;100.00;98442.31;5023221;28;20202;-50
2021/12/28 04:42:50;;;;;;;1.60;0.60;;;;;;;8.42;100.00;98431.97;5023331;28;20229;-51
2021/12/28 04:45:17;;;;;;;3.73;1.00;;;;;;;8.43;100.00;98437.09;5023775;28;20196;-50
2021/12/28 04:47:42;;;;;;;2.87;0.93;;;;;;;8.45;100.00;98437.88;5017729;28;20210;-50
2021/12/28 04:50:10;;;;;;;1.00;0.47;;;;;;;8.44;100.00;98427.63;5023663;28;20656;-50
2021/12/28 04:52:38;;;;;;;2.27;0.70;;;;;;;8.47;100.00;98424.97;5019857;28;20258;-50
2021/12/28 04:55:16;;;;;;;1.37;0.83;;;;;;;8.47;100.00;98425.78;5032863;28;20190;-50
2021/12/28 04:57:43;;;;;;;1.23;0.50;;;;;;;8.47;100.00;98417.22;5024581;28;20629;-50
2021/12/28 05:00:12;;;;;;;3.30;0.63;;;;;;;8.46;100.00;98416.38;5019122;28;20195;-49
2021/12/28 05:02:37;;;;;;;1.60;0.60;;;;;;;8.47;100.00;98414.66;5017993;28;20250;-50
2021/12/28 05:05:03;;;;;;;1.50;0.60;;;;;;;8.45;100.00;98412.09;5022113;28;20199;-50
2021/12/28 05:07:30;;;;;;;1.53;0.80;;;;;;;8.44;100.00;98409.59;5039498;28;20227;-51
2021/12/28 05:09:58;;;;;;;0.80;0.50;;;;;;;8.43;100.00;98415.63;5022219;28;20188;-50
2021/12/28 05:12:25;;;;;;;1.53;0.60;;;;;;;8.41;100.00;98415.66;5018386;28;20464;-51
2021/12/28 05:14:50;;;;;;;2.23;0.70;;;;;;;8.39;100.00;98418.28;5021481;28;20269;-51
2021/12/28 05:17:16;;;;;;;1.27;0.50;;;;;;;8.39;100.00;98420.03;5021956;28;20211;-51
2021/12/28 05:19:41;;;;;;;0.60;0.57;;;;;;;8.39;100.00;98420.03;5022664;28;20192;-50
2021/12/28 05:22:12;;;;;;;1.30;0.50;;;;;;;8.38;100.00;98411.44;5018861;28;20225;-50
2021/12/28 05:24:38;;;;;;;1.07;0.60;;;;;;;8.39;100.00;98409.72;5017151;28;20196;-51
2021/12/28 05:27:03;;;;;;;0.93;0.40;;;;;;;8.37;100.00;98412.34;5018963;28;20219;-60
2021/12/28 05:29:29;;;;;;;0.70;0.40;;;;;;;8.37;100.00;98408.94;5016436;28;20735;-50
2021/12/28 05:31:54;;;;;;;1.37;0.67;;;;;;;8.38;100.00;98413.19;5021990;28;20203;-51
2021/12/28 05:34:21;;;;;;;2.37;0.60;;;;;;;8.37;100.00;98403.78;5026989;28;20197;-50
2021/12/28 05:36:46;;;;;;;3.77;0.80;;;;;;;8.38;100.00;98398.56;5024253;28;20208;-50
2021/12/28 05:39:12;;;;;;;1.37;0.60;;;;;;;8.39;100.00;98395.09;5028432;28;20685;-50
2021/12/28 05:41:39;;;;;;;0.50;0.40;;;;;;;8.39;100.00;98384.78;5024356;28;20209;-50
2021/12/28 05:44:05;;;;;;;1.37;0.60;;;;;;;8.41;100.00;98373.59;5019612;28;20203;-50
2021/12/28 05:46:30;;;;;;;0.80;0.43;;;;;;;8.40;100.00;98365.00;5026629;28;20581;-50
2021/12/28 05:48:58;;;;;;;1.47;0.70;;;;;;;8.40;100.00;98372.72;5026783;28;20183;-50
2021/12/28 05:51:23;;;;;;;1.30;0.60;;;;;;;8.40;100.00;98359.84;5021373;28;20349;-52
2021/12/28 05:53:49;;;;;;;0.73;0.40;;;;;;;8.41;100.00;98373.59;5018975;28;20692;-51
2021/12/28 05:56:14;;;;;;;1.03;0.50;;;;;;;8.39;100.00;98368.50;5027970;28;20243;-50
2021/12/28 05:58:40;;;;;;;0.90;0.47;;;;;;;8.39;100.00;98350.44;5021285;28;20208;-51
2021/12/28 06:01:05;;;;;;;1.17;0.67;;;;;;;8.41;100.00;98352.97;5019256;28;20196;-51
2021/12/28 06:03:31;;;;;;;1.17;0.47;;;;;;;8.42;100.00;98354.66;5016742;28;20613;-50
2021/12/28 06:05:57;;;;;;;1.23;0.40;;;;;;;8.43;100.00;98353.75;5012786;28;22613;-51
2021/12/28 06:08:22;;;;;;;1.10;0.50;;;;;;;8.44;100.00;98342.56;5021720;28;20277;-51
2021/12/28 06:10:48;;;;;;;2.13;0.63;;;;;;;8.47;100.00;98358.78;5024428;28;20228;-50
2021/12/28 06:13:13;;;;;;;1.50;0.50;;;;;;;8.50;100.00;98352.69;5026267;28;20215;-50
2021/12/28 06:15:39;;;;;;;1.27;0.50;;;;;;;8.52;100.00;98356.06;5015143;28;20207;-51
2021/12/28 06:18:04;;;;;;;1.20;0.67;;;;;;;8.57;100.00;98355.91;5012523;28;20676;-50
2021/12/28 06:20:30;;;;;;;1.53;0.53;;;;;;;8.60;100.00;98363.56;5016638;28;20195;-50
2021/12/28 06:22:55;;;;;;;1.23;0.50;;;;;;;8.64;100.00;98354.84;5023573;28;20191;-50
2021/12/28 06:25:21;;;;;;;0.87;0.60;;;;;;;8.66;100.00;98351.31;5020161;28;20194;-50
2021/12/28 06:27:46;;;;;;;1.10;0.70;;;;;;;8.70;100.00;98354.63;5021550;28;20226;-49
2021/12/28 06:30:12;;;;;;;1.47;0.90;;;;;;;8.73;100.00;98359.69;5011363;28;20651;-50
2021/12/28 06:32:37;;;;;;;1.50;0.70;;;;;;;8.78;100.00;98362.13;5005094;28;20197;-50
2021/12/28 06:35:04;;;;;;;1.77;0.60;;;;;;;8.87;100.00;98353.25;5008088;28;20670;-50
2021/12/28 06:37:29;;;;;;;1.23;0.57;;;;;;;8.91;100.00;98360.00;5017110;28;20219;-50
2021/12/28 06:39:54;;;;;;;1.20;0.50;;;;;;;8.96;100.00;98353.78;5019274;28;20202;-50
2021/12/28 06:42:20;;;;;;;1.30;0.70;;;;;;;8.98;100.00;98346.84;5019789;28;20194;-50
2021/12/28 06:44:47;;;;;;;1.27;0.77;;;;;;;9.02;100.00;98355.31;5023947;28;20545;-50
2021/12/28 06:47:13;;;;;;;1.00;0.40;;;;;;;9.06;100.00;98358.66;5028059;28;20634;-50
2021/12/28 06:49:39;;;;;;;1.50;0.50;;;;;;;9.08;100.00;98343.94;5021056;28;20213;-50
2021/12/28 06:52:06;;;;;;;1.63;0.40;;;;;;;9.10;100.00;98345.59;5024070;28;20225;-50
2021/12/28 06:54:37;;;;;;;1.07;0.60;;;;;;;9.12;100.00;98353.25;5021037;28;20658;-51
2021/12/28 06:57:07;;;;;;;0.60;0.40;;;;;;;9.14;100.00;98344.59;5017174;28;20212;-52
2021/12/28 06:59:35;;;;;;;0.87;0.50;;;;;;;9.14;100.00;98349.75;5035484;28;20195;-50
2021/12/28 07:02:00;;;;;;;0.70;0.40;;;;;;;9.19;100.00;98356.47;5023651;28;20250;-50
2021/12/28 07:04:26;;;;;;;0.90;0.50;;;;;;;9.21;100.00;98352.97;5026229;28;20188;-51
2021/12/28 07:06:51;;;;;;;0.87;0.53;;;;;;;9.25;100.00;98351.13;5023475;28;20238;-50
2021/12/28 07:09:16;;;;;;;0.80;0.23;;;;;;;9.29;100.00;98350.13;5022478;28;20760;-50
2021/12/28 07:11:42;;;;;;;0.40;0.40;;;;;;;9.29;100.00;98342.38;5021619;28;20199;-50
2021/12/28 07:14:07;;;;;;;0.83;0.53;;;;;;;9.34;100.00;98349.94;5021613;28;20599;-50
2021/12/28 07:16:33;;;;;;;0.50;0.50;;;;;;;9.36;100.00;98361.06;5017128;28;20279;-51
2021/12/28 07:18:58;;;;;;;1.83;0.63;;;;;;;9.37;100.00;98355.00;5020671;28;20188;-50
2021/12/28 07:21:23;;;;;;;0.47;0.43;;;;;;;9.38;100.00;98361.84;5031785;28;20550;-51
2021/12/28 07:23:49;;;;;;;0.53;0.30;;;;;;;9.39;100.00;98359.22;5024925;28;20667;-51
2021/12/28 07:26:14;;;;;;;0.40;0.40;;;;;;;9.41;100.00;98354.84;5024832;28;20571;-51
2021/12/28 07:28:40;;;;;;;1.13;0.20;;;;;;;9.41;100.00;98361.72;5023014;28;20288;-50
2021/12/28 07:31:05;;;;;;;0.50;0.50;;;;;;;9.40;100.00;98366.06;5021028;28;20192;-50
2021/12/28 07:33:30;;;;;;;0.40;0.40;;;;;;;9.40;100.00;98367.78;5018821;28;20324;-52
2021/12/28 07:35:56;;;;;;;0.60;0.50;;;;;;;9.39;100.00;98366.09;5016137;28;20215;-50
2021/12/28 07:38:21;;;;;;;1.17;0.50;;;;;;;9.38;100.00;98370.44;5016127;28;20273;-51
2021/12/28 07:40:47;;;;;;;0.50;0.47;;;;;;;9.36;100.00;98363.66;5013776;28;20250;-50
2021/12/28 07:43:12;;;;;;;1.43;0.50;;;;;;;9.36;100.00;98364.47;5029260;28;20548;-50
2021/12/28 07:45:38;;;;;;;0.90;0.60;;;;;;;9.34;100.00;98371.44;5033178;28;20188;-51
2021/12/28 07:48:03;;;;;;;0.60;0.60;;;;;;;9.34;100.00;98371.44;5022982;28;20258;-51
2021/12/28 07:50:29;;;;;;;0.70;0.70;;;;;;;9.34;100.00;98375.78;5020492;28;20193;-50
2021/12/28 07:52:55;;;;;;;1.00;0.60;;;;;;;9.32;100.00;98382.72;5018262;28;20198;-50
2021/12/28 07:55:21;;;;;;;0.60;0.57;;;;;;;9.29;100.00;98375.94;5026720;28;20184;-50
2021/12/28 07:57:46;;;;;;;0.80;0.70;;;;;;;9.29;100.00;98378.50;5024776;28;20265;-50
2021/12/28 08:00:15;;;;;;;0.97;0.80;;;;;;;9.30;100.00;98381.03;5018457;28;20188;-50
2021/12/28 08:02:43;;;;;;;0.90;0.80;;;;;;;9.32;100.00;98380.97;5020062;28;20188;-51
2021/12/28 08:05:11;;;;;;;1.60;0.77;;;;;;;9.34;100.00;98379.19;5016919;28;20191;-50
2021/12/28 08:07:37;;;;;;;0.80;0.80;;;;;;;9.37;100.00;98386.00;5018162;28;20655;-51
2021/12/28 08:10:05;;;;;;;0.80;0.80;;;;;;;9.39;100.00;98390.19;5026405;28;20212;-51
2021/12/28 08:12:31;;;;;;;0.70;0.53;;;;;;;9.43;100.00;98389.19;5032031;28;20202;-50
2021/12/28 08:14:56;;;;;;;0.97;0.60;;;;;;;9.45;100.00;98394.31;5013076;28;20191;-49
2021/12/28 08:17:22;;;;;;;1.13;0.80;;;;;;;9.49;100.00;98392.44;5019320;28;20642;-50
2021/12/28 08:19:47;;;;;;;0.63;0.63;;;;;;;9.51;100.00;98395.81;5027491;28;20214;-50
2021/12/28 08:22:13;;;;;;;0.70;0.70;;;;;;;9.59;100.00;98399.00;5026931;28;20195;-50
2021/12/28 08:24:38;;;;;;;0.70;0.50;;;;;;;9.64;100.00;98409.97;5019888;28;20188;-50
2021/12/28 08:27:03;;;;;;;0.90;0.50;;;;;;;9.73;100.00;98407.09;5027688;28;20216;-50
2021/12/28 08:29:29;;;;;;;0.73;0.63;;;;;;;9.80;100.00;98415.47;5032630;28;20545;-50
2021/12/28 08:31:54;;;;;;;1.37;0.70;;;;;;;9.83;100.00;98422.25;5028277;28;20191;-49
2021/12/28 08:34:20;;;;;;;0.40;0.40;;;;;;;9.87;100.00;98434.16;5021452;28;20226;-52
2021/12/28 08:36:45;;;;;;;0.80;0.70;;;;;;;9.90;100.00;98426.31;5028391;28;20594;-50
2021/12/28 08:39:11;;;;;;;0.67;0.50;;;;;;;9.87;100.00;98427.25;5019896;28;20652;-50
2021/12/28 08:41:36;;;;;;;0.50;0.47;;;;;;;9.88;100.00;98421.19;5026894;28;20194;-51
2021/12/28 08:44:02;;;;;;;1.43;0.60;;;;;;;9.91;100.00;98415.91;5020505;28;20266;-50
2021/12/28 08:46:29;;;;;;;0.50;0.50;;;;;;;9.90;100.00;98424.56;5017633;28;20250;-51
2021/12/28 08:48:55;;;;;;;0.50;0.50;;;;;;;9.90;100.00;98426.31;5027601;28;20197;-51
2021/12/28 08:51:20;;;;;;;0.50;0.50;;;;;;;9.91;100.00;98418.50;5023904;28;20196;-50
2021/12/28 08:53:46;;;;;;;1.23;0.60;;;;;;;9.93;100.00;98428.75;5024952;28;20188;-50
2021/12/28 08:56:11;;;;;;;0.60;0.60;;;;;;;9.94;100.00;98439.97;5021037;28;20185;-50
2021/12/28 08:58:36;;;;;;;0.60;0.50;;;;;;;9.97;100.00;98432.09;5010616;28;20269;-50
2021/12/28 09:01:04;;;;;;;0.60;0.60;;;;;;;9.95;100.00;98445.06;5017512;28;20199;-50
2021/12/28 09:03:29;;;;;;;0.97;0.87;;;;;;;9.98;100.00;98457.03;5025586;28;20660;-51
2021/12/28 09:05:55;;;;;;;1.00;0.80;;;;;;;9.98;100.00;98465.63;5022529;28;20199;-50
2021/12/28 09:08:20;;;;;;;1.17;0.93;;;;;;;9.99;100.00;98469.91;5028702;28;20769;-50
2021/12/28 09:10:48;;;;;;;0.93;0.90;;;;;;;10.02;100.00;98469.78;5027389;28;20191;-51
2021/12/28 09:13:14;;;;;;;1.07;0.77;;;;;;;10.05;100.00;98464.53;5026936;28;20256;-50
2021/12/28 09:15:41;;;;;;;1.00;0.70;;;;;;;10.07;100.00;98460.13;5019410;28;20643;-51
2021/12/28 09:18:06;;;;;;;1.23;0.60;;;;;;;10.08;100.00;98468.72;5025895;28;20231;-51
2021/12/28 09:20:32;;;;;;;2.10;0.70;;;;;;;10.05;100.00;98484.34;5029606;28;20234;-51
2021/12/28 09:22:58;;;;;;;1.17;0.63;;;;;;;10.05;100.00;98471.41;5027941;28;20833;-50
2021/12/28 09:25:23;;;;;;;1.00;0.90;;;;;;;10.04;100.00;98496.44;5019291;28;20199;-50
2021/12/28 09:27:50;;;;;;;1.10;0.80;;;;;;;10.06;100.00;98507.53;5027461;28;20219;-50
2021/12/28 09:30:15;;;;;;;0.50;0.50;;;;;;;10.10;100.00;98512.59;5023226;28;20811;-50
2021/12/28 09:32:41;;;;;;;0.70;0.50;;;;;;;10.11;100.00;98512.56;5024235;28;20188;-50
2021/12/28 09:35:08;;;;;;;0.67;0.57;;;;;;;10.12;100.00;98518.56;5024093;28;20275;-50
2021/12/28 09:37:34;;;;;;;1.00;0.70;;;;;;;10.15;100.00;98518.47;5017498;28;20215;-51
2021/12/28 09:40:01;;;;;;;0.60;0.53;;;;;;;10.19;100.00;98518.28;5020561;28;20237;-50
2021/12/28 09:42:27;;;;;;;0.40;0.40;;;;;;;10.24;100.00;98518.13;5025088;28;20194;-50
2021/12/28 09:44:52;;;;;;;0.80;0.50;;;;;;;10.29;100.00;98525.69;5023331;28;20191;-51
2021/12/28 09:47:19;;;;;;;1.60;0.47;;;;;;;10.35;100.00;98520.31;5029283;28;20537;-50
2021/12/28 09:49:46;;;;;;;0.43;0.43;;;;;;;10.40;100.00;98526.22;5026705;28;20640;-50
2021/12/28 09:52:12;;;;;;;0.90;0.50;;;;;;;10.45;100.00;98519.09;5023107;28;20195;-51
2021/12/28 09:54:39;;;;;;;0.93;0.60;;;;;;;10.46;100.00;98523.38;5024250;28;20199;-50
2021/12/28 09:57:04;;;;;;;0.60;0.40;;;;;;;10.46;100.00;98538.06;5028188;28;20796;-51
2021/12/28 09:59:31;;;;;;;0.50;0.50;;;;;;;10.49;100.00;98536.22;5021848;28;20598;-50
2021/12/28 10:01:59;;;;;;;0.50;0.30;;;;;;;10.50;100.00;98539.66;5025812;28;20196;-51
2021/12/28 10:04:25;;;;;;;2.00;0.60;;;;;;;10.50;100.00;98544.81;5022977;28;20308;-51
2021/12/28 10:06:50;;;;;;;0.60;0.40;;;;;;;10.50;100.00;98543.06;5018356;28;20307;-51
2021/12/28 10:09:19;;;;;;;0.80;0.30;;;;;;;10.53;100.00;98542.09;5023867;28;20278;-50
2021/12/28 10:11:53;;;;;;;0.87;0.50;;;;;;;10.56;100.00;98544.59;5026870;28;20191;-50
2021/12/28 10:14:25;;;;;;;1.20;0.47;;;;;;;10.55;100.00;98542.88;5022290;28;20199;-51
2021/12/28 10:17:00;;;;;;;0.60;0.60;;;;;;;10.56;100.00;98538.56;5016472;28;20224;-50
2021/12/28 10:19:36;;;;;;;0.70;0.40;;;;;;;10.60;100.00;98533.22;5026583;28;20214;-50
2021/12/28 10:22:21;;;;;;;1.20;0.53;;;;;;;10.62;100.00;98530.56;5028235;28;20236;-50
2021/12/28 10:24:47;;;;;;;1.33;0.60;;;;;;;10.61;100.00;98528.88;5023756;28;20188;-50
2021/12/28 10:27:15;;;;;;;1.17;0.70;;;;;;;10.57;100.00;98535.09;5022645;28;20219;-51
2021/12/28 10:29:41;;;;;;;1.00;0.50;;;;;;;10.58;100.00;98534.19;5021155;28;20189;-51
2021/12/28 10:32:17;;;;;;;1.80;0.90;;;;;;;10.60;100.00;98525.47;5014791;28;20665;-50
2021/12/28 10:34:58;;;;;;;1.43;0.70;;;;;;;10.60;100.00;98520.28;5015623;28;20230;-50
2021/12/28 10:37:27;;;;;;;0.50;0.50;;;;;;;10.63;100.00;98520.19;5012347;28;20215;-50
2021/12/28 10:39:56;;;;;;;1.53;0.80;;;;;;;10.74;100.00;98508.56;5018945;28;20199;-50
2021/12/28 10:42:40;;;;;;;0.50;0.50;;;;;;;10.92;100.00;98510.47;5023898;28;20199;-51
2021/12/28 10:45:09;;;;;;;0.83;0.50;;;;;;;11.03;100.00;98516.94;5020617;28;20257;-51
2021/12/28 10:47:34;;;;;;;1.00;0.63;;;;;;;11.04;100.00;98505.69;5018364;28;20258;-51
2021/12/28 10:50:08;;;;;;;0.70;0.70;;;;;;;11.02;100.00;98499.72;5008635;28;20666;-50
2021/12/28 10:52:38;;;;;;;0.67;0.47;;;;;;;10.98;100.00;98511.97;5023376;28;20199;-50
2021/12/28 10:55:24;;;;;;;0.67;0.40;;;;;;;10.95;100.00;98500.00;5019668;28;20274;-51
2021/12/28 10:57:50;;;;;;;1.57;0.60;;;;;;;10.97;100.00;98503.34;5024754;28;20232;-50
2021/12/28 11:00:42;;;;;;;1.63;0.70;;;;;;;11.02;100.00;98497.16;5026673;28;20234;-50
2021/12/28 11:03:17;;;;;;;0.70;0.60;;;;;;;11.09;100.00;98501.19;5018941;28;20199;-49
2021/12/28 11:05:48;;;;;;;0.80;0.60;;;;;;;11.13;100.00;98493.22;5023496;28;20189;-51
2021/12/28 11:08:15;;;;;;;0.70;0.67;;;;;;;11.22;100.00;98491.16;5016079;28;20843;-51
2021/12/28 11:10:49;;;;;;;1.00;0.63;;;;;;;11.37;100.00;98500.91;5020465;28;20705;-51
2021/12/28 11:13:19;;;;;;;8.90;8.27;;;;;;;11.46;100.00;98499.69;5024703;28;20195;-50
2021/12/28 11:15:46;;;;;;;5.47;5.07;;;;;;;11.51;100.00;98502.06;5018802;28;20267;-49
2021/12/28 11:18:33;;;;;;;4.97;4.57;;;;;;;11.56;100.00;98493.22;5013204;28;20202;-50
2021/12/28 11:21:20;;;;;;;4.27;3.97;;;;;;;11.53;100.00;98495.09;5030395;28;20175;-50
2021/12/28 11:23:49;;;;;;;2.73;2.53;;;;;;;11.54;100.00;98497.63;5022516;28;20675;-50
2021/12/28 11:26:27;;;;;;;1.33;1.23;;;;;;;11.57;100.00;98500.06;5026574;28;20191;-51
2021/12/28 11:28:57;;;;;;;1.37;1.27;;;;;;;11.55;100.00;98486.38;5033244;28;20554;-50
2021/12/28 11:31:26;;;;;;;2.03;1.60;;;;;;;11.57;100.00;98497.47;5019164;28;20236;-50
2021/12/28 11:34:24;;;;;;;1.10;1.00;;;;;;;11.57;100.00;98486.28;5023647;28;20195;-51